<?xml version="1.0" encoding="UTF-8" standalone="no" ?><gpx xmlns="http://www.topografix.com/GPX/1/1" xmlns:gpxx="http://www.garmin.com/xmlschemas/GpxExtensions/v3" xmlns:gpxtrkx="http://www.garmin.com/xmlschemas/TrackStatsExtension/v1" xmlns:wptx1="http://www.garmin.com/xmlschemas/WaypointExtension/v1" xmlns:gpxtpx="http://www.garmin.com/xmlschemas/TrackPointExtension/v1" creator="GPSMAP 64" version="1.1" xmlns:xsi="http://www.w3.org/2001/XMLSchema-instance" xsi:schemaLocation="http://www.topografix.com/GPX/1/1 http://www.topografix.com/GPX/1/1/gpx.xsd http://www.garmin.com/xmlschemas/GpxExtensions/v3 http://www8.garmin.com/xmlschemas/GpxExtensionsv3.xsd http://www.garmin.com/xmlschemas/TrackStatsExtension/v1 http://www8.garmin.com/xmlschemas/TrackStatsExtension.xsd http://www.garmin.com/xmlschemas/WaypointExtension/v1 http://www8.garmin.com/xmlschemas/WaypointExtensionv1.xsd http://www.garmin.com/xmlschemas/TrackPointExtension/v1 http://www.garmin.com/xmlschemas/TrackPointExtensionv1.xsd"><metadata><link href="http://www.garmin.com"><text>Garmin International</text></link><time>2026-08-14T11:07:36Z</time></metadata><trk><name>2026-08-14 ЛИСА 9</name><extensions><gpxx:TrackExtension><gpxx:DisplayColor>Red</gpxx:DisplayColor></gpxx:TrackExtension><gpxtrkx:TrackStatsExtension><gpxtrkx:Distance>6211.000</gpxtrkx:Distance><gpxtrkx:TotalElapsedTime>23325</gpxtrkx:TotalElapsedTime><gpxtrkx:MovingTime>8641</gpxtrkx:MovingTime><gpxtrkx:StoppedTime>1575</gpxtrkx:StoppedTime><gpxtrkx:MovingSpeed>0.719</gpxtrkx:MovingSpeed><gpxtrkx:MaxSpeed>746.491</gpxtrkx:MaxSpeed><gpxtrkx:MaxElevation>6418.150</gpxtrkx:MaxElevation><gpxtrkx:MinElevation>-432.575</gpxtrkx:MinElevation><gpxtrkx:Ascent>90751.000</gpxtrkx:Ascent><gpxtrkx:Descent>94734.477</gpxtrkx:Descent><gpxtrkx:AvgAscentRate>0.053</gpxtrkx:AvgAscentRate><gpxtrkx:MaxAscentRate>5.365</gpxtrkx:MaxAscentRate><gpxtrkx:AvgDescentRate>0.056</gpxtrkx:AvgDescentRate><gpxtrkx:MaxDescentRate>-7.542</gpxtrkx:MaxDescentRate></gpxtrkx:TrackStatsExtension></extensions><trkseg><trkpt lat="59.3505955674" lon="34.6994540468"><ele>159.37</ele><time>2026-08-14T04:38:51Z</time></trkpt><trkpt lat="59.3505951483" lon="34.6994583216"><ele>159.83</ele><time>2026-08-14T04:39:06Z</time></trkpt><trkpt lat="59.3504994269" lon="34.6993791964"><ele>152.38</ele><time>2026-08-14T08:17:33Z</time></trkpt><trkpt lat="59.3505175319" lon="34.6994132269"><ele>153.15</ele><time>2026-08-14T08:18:02Z</time></trkpt><trkpt lat="59.3505309429" lon="34.6993897576"><ele>153.77</ele><time>2026-08-14T08:18:22Z</time></trkpt><trkpt lat="59.3505228963" lon="34.6994307451"><ele>152.14</ele><time>2026-08-14T08:18:43Z</time></trkpt><trkpt lat="59.3505322840" lon="34.6994493529"><ele>153.07</ele><time>2026-08-14T08:19:02Z</time></trkpt><trkpt lat="59.3505537417" lon="34.6994064376"><ele>153.48</ele><time>2026-08-14T08:19:23Z</time></trkpt><trkpt lat="59.3505731877" lon="34.6993992291"><ele>153.89</ele><time>2026-08-14T08:19:51Z</time></trkpt><trkpt lat="59.3505842518" lon="34.6994058508"><ele>154.24</ele><time>2026-08-14T08:20:18Z</time></trkpt><trkpt lat="59.3505715951" lon="34.6993542183"><ele>154.37</ele><time>2026-08-14T08:20:44Z</time></trkpt><trkpt lat="59.3505601119" lon="34.6993965469"><ele>155.38</ele><time>2026-08-14T08:21:09Z</time></trkpt><trkpt lat="59.3506129179" lon="34.6994225308"><ele>155.32</ele><time>2026-08-14T08:21:39Z</time></trkpt><trkpt lat="59.3506089784" lon="34.6994062699"><ele>154.89</ele><time>2026-08-14T08:22:42Z</time></trkpt><trkpt lat="59.3505928013" lon="34.6994031686"><ele>154.43</ele><time>2026-08-14T08:23:31Z</time></trkpt><trkpt lat="59.3505896162" lon="34.6994302422"><ele>153.63</ele><time>2026-08-14T08:23:59Z</time></trkpt><trkpt lat="59.3505822401" lon="34.6993268933"><ele>154.39</ele><time>2026-08-14T08:24:28Z</time></trkpt><trkpt lat="59.3505680747" lon="34.6991436649"><ele>154.07</ele><time>2026-08-14T08:24:48Z</time></trkpt><trkpt lat="59.3505618721" lon="34.6991269849"><ele>154.07</ele><time>2026-08-14T08:24:49Z</time></trkpt><trkpt lat="59.3505458627" lon="34.6990889311"><ele>154.10</ele><time>2026-08-14T08:24:51Z</time></trkpt><trkpt lat="59.3505012710" lon="34.6988046169"><ele>155.73</ele><time>2026-08-14T08:25:05Z</time></trkpt><trkpt lat="59.3504343834" lon="34.6984241623"><ele>155.94</ele><time>2026-08-14T08:25:23Z</time></trkpt><trkpt lat="59.3504338805" lon="34.6981173009"><ele>155.90</ele><time>2026-08-14T08:25:36Z</time></trkpt><trkpt lat="59.3504441064" lon="34.6980914008"><ele>155.72</ele><time>2026-08-14T08:25:38Z</time></trkpt><trkpt lat="59.3505180348" lon="34.6977837011"><ele>155.28</ele><time>2026-08-14T08:25:54Z</time></trkpt><trkpt lat="59.3506113254" lon="34.6975024883"><ele>153.72</ele><time>2026-08-14T08:26:11Z</time></trkpt><trkpt lat="59.3508371338" lon="34.6973519493"><ele>153.85</ele><time>2026-08-14T08:26:32Z</time></trkpt><trkpt lat="59.3508804683" lon="34.6973268874"><ele>153.82</ele><time>2026-08-14T08:26:36Z</time></trkpt><trkpt lat="59.3509885110" lon="34.6972332615"><ele>153.01</ele><time>2026-08-14T08:26:51Z</time></trkpt><trkpt lat="59.3509978149" lon="34.6972251311"><ele>153.36</ele><time>2026-08-14T08:27:08Z</time></trkpt><trkpt lat="59.3510118127" lon="34.6972019132"><ele>153.76</ele><time>2026-08-14T08:27:26Z</time></trkpt><trkpt lat="59.3510791194" lon="34.6971276496"><ele>153.34</ele><time>2026-08-14T08:27:33Z</time></trkpt><trkpt lat="59.3512399681" lon="34.6970442496"><ele>151.96</ele><time>2026-08-14T08:27:50Z</time></trkpt><trkpt lat="59.3514116295" lon="34.6969807148"><ele>151.15</ele><time>2026-08-14T08:28:06Z</time></trkpt><trkpt lat="59.3515413813" lon="34.6969431639"><ele>150.17</ele><time>2026-08-14T08:28:19Z</time></trkpt><trkpt lat="59.3517240230" lon="34.6969996579"><ele>151.56</ele><time>2026-08-14T08:28:36Z</time></trkpt><trkpt lat="59.3518334907" lon="34.6970633604"><ele>151.15</ele><time>2026-08-14T08:28:45Z</time></trkpt><trkpt lat="59.3518943433" lon="34.6970770229"><ele>150.49</ele><time>2026-08-14T08:28:51Z</time></trkpt><trkpt lat="59.3520391826" lon="34.6971549746"><ele>146.74</ele><time>2026-08-14T08:29:08Z</time></trkpt><trkpt lat="59.3521941639" lon="34.6972504444"><ele>140.98</ele><time>2026-08-14T08:29:26Z</time></trkpt><trkpt lat="59.3523120135" lon="34.6973581519"><ele>138.14</ele><time>2026-08-14T08:29:42Z</time></trkpt><trkpt lat="59.3524151109" lon="34.6974624228"><ele>137.91</ele><time>2026-08-14T08:29:55Z</time></trkpt><trkpt lat="59.3524452019" lon="34.6975103673"><ele>138.57</ele><time>2026-08-14T08:30:08Z</time></trkpt><trkpt lat="59.3524984270" lon="34.6976055019"><ele>139.43</ele><time>2026-08-14T08:30:34Z</time></trkpt><trkpt lat="59.3526422605" lon="34.6977334935"><ele>141.30</ele><time>2026-08-14T08:30:51Z</time></trkpt><trkpt lat="59.3527575955" lon="34.6979074180"><ele>142.28</ele><time>2026-08-14T08:31:10Z</time></trkpt><trkpt lat="59.3527793046" lon="34.6979305521"><ele>142.34</ele><time>2026-08-14T08:31:13Z</time></trkpt><trkpt lat="59.3528140057" lon="34.6979558654"><ele>142.28</ele><time>2026-08-14T08:31:17Z</time></trkpt><trkpt lat="59.3529213779" lon="34.6980448812"><ele>143.24</ele><time>2026-08-14T08:31:31Z</time></trkpt><trkpt lat="59.3530338630" lon="34.6981737111"><ele>146.97</ele><time>2026-08-14T08:31:52Z</time></trkpt><trkpt lat="59.3531060312" lon="34.6982794907"><ele>147.97</ele><time>2026-08-14T08:32:13Z</time></trkpt><trkpt lat="59.3531883415" lon="34.6983610466"><ele>149.14</ele><time>2026-08-14T08:32:31Z</time></trkpt><trkpt lat="59.3531772774" lon="34.6985161118"><ele>150.05</ele><time>2026-08-14T08:32:48Z</time></trkpt><trkpt lat="59.3532189354" lon="34.6986912936"><ele>150.61</ele><time>2026-08-14T08:33:05Z</time></trkpt><trkpt lat="59.3532305025" lon="34.6988234762"><ele>150.53</ele><time>2026-08-14T08:33:20Z</time></trkpt><trkpt lat="59.3532350287" lon="34.6988611948"><ele>150.04</ele><time>2026-08-14T08:33:44Z</time></trkpt><trkpt lat="59.3532280717" lon="34.6990803815"><ele>151.48</ele><time>2026-08-14T08:34:12Z</time></trkpt><trkpt lat="59.3533083703" lon="34.6991004143"><ele>151.93</ele><time>2026-08-14T08:34:29Z</time></trkpt><trkpt lat="59.3534162454" lon="34.6991471853"><ele>149.87</ele><time>2026-08-14T08:34:48Z</time></trkpt><trkpt lat="59.3534797803" lon="34.6990450937"><ele>151.19</ele><time>2026-08-14T08:34:58Z</time></trkpt><trkpt lat="59.3535030819" lon="34.6989866719"><ele>151.37</ele><time>2026-08-14T08:35:02Z</time></trkpt><trkpt lat="59.3536071852" lon="34.6989218798"><ele>151.90</ele><time>2026-08-14T08:35:18Z</time></trkpt><trkpt lat="59.3536910042" lon="34.6988624521"><ele>152.25</ele><time>2026-08-14T08:35:31Z</time></trkpt><trkpt lat="59.3537738174" lon="34.6987859253"><ele>152.12</ele><time>2026-08-14T08:35:45Z</time></trkpt><trkpt lat="59.3537713867" lon="34.6987536550"><ele>152.36</ele><time>2026-08-14T08:36:17Z</time></trkpt><trkpt lat="59.3538023997" lon="34.6984711848"><ele>152.05</ele><time>2026-08-14T08:36:50Z</time></trkpt><trkpt lat="59.3538012262" lon="34.6984677482"><ele>152.34</ele><time>2026-08-14T08:37:30Z</time></trkpt><trkpt lat="59.3538051657" lon="34.6984701790"><ele>152.31</ele><time>2026-08-14T08:38:01Z</time></trkpt><trkpt lat="59.3537801877" lon="34.6984644793"><ele>152.17</ele><time>2026-08-14T08:38:35Z</time></trkpt><trkpt lat="59.3537332490" lon="34.6984850150"><ele>152.23</ele><time>2026-08-14T08:38:57Z</time></trkpt><trkpt lat="59.3537168205" lon="34.6985028684"><ele>152.23</ele><time>2026-08-14T08:39:02Z</time></trkpt><trkpt lat="59.3536731508" lon="34.6984428540"><ele>151.82</ele><time>2026-08-14T08:39:21Z</time></trkpt><trkpt lat="59.3536657747" lon="34.6983696800"><ele>151.85</ele><time>2026-08-14T08:39:45Z</time></trkpt><trkpt lat="59.3536672834" lon="34.6983747929"><ele>151.90</ele><time>2026-08-14T08:40:14Z</time></trkpt><trkpt lat="59.3536621705" lon="34.6983075701"><ele>151.98</ele><time>2026-08-14T08:40:48Z</time></trkpt><trkpt lat="59.3536846340" lon="34.6983157005"><ele>152.32</ele><time>2026-08-14T08:41:20Z</time></trkpt><trkpt lat="59.3536854722" lon="34.6983027924"><ele>154.39</ele><time>2026-08-14T08:41:51Z</time></trkpt><trkpt lat="59.3536653556" lon="34.6981912293"><ele>153.88</ele><time>2026-08-14T08:42:11Z</time></trkpt><trkpt lat="59.3535921816" lon="34.6980717033"><ele>154.78</ele><time>2026-08-14T08:42:30Z</time></trkpt><trkpt lat="59.3535882421" lon="34.6979345754"><ele>155.38</ele><time>2026-08-14T08:42:48Z</time></trkpt><trkpt lat="59.3535224441" lon="34.6976987086"><ele>154.50</ele><time>2026-08-14T08:43:05Z</time></trkpt><trkpt lat="59.3535282277" lon="34.6975153964"><ele>154.41</ele><time>2026-08-14T08:43:20Z</time></trkpt><trkpt lat="59.3534994777" lon="34.6973815374"><ele>155.24</ele><time>2026-08-14T08:43:33Z</time></trkpt><trkpt lat="59.3534460012" lon="34.6972517855"><ele>155.39</ele><time>2026-08-14T08:43:52Z</time></trkpt><trkpt lat="59.3534841388" lon="34.6970624384"><ele>154.88</ele><time>2026-08-14T08:44:06Z</time></trkpt><trkpt lat="59.3534603342" lon="34.6969098039"><ele>157.52</ele><time>2026-08-14T08:44:38Z</time></trkpt><trkpt lat="59.3535045907" lon="34.6967497934"><ele>156.83</ele><time>2026-08-14T08:44:57Z</time></trkpt><trkpt lat="59.3535045069" lon="34.6966343746"><ele>156.50</ele><time>2026-08-14T08:45:18Z</time></trkpt><trkpt lat="59.3534562271" lon="34.6965016052"><ele>155.22</ele><time>2026-08-14T08:45:50Z</time></trkpt><trkpt lat="59.3534618430" lon="34.6964945644"><ele>154.99</ele><time>2026-08-14T08:46:23Z</time></trkpt><trkpt lat="59.3534670398" lon="34.6964041237"><ele>155.67</ele><time>2026-08-14T08:46:49Z</time></trkpt><trkpt lat="59.3534613401" lon="34.6961797401"><ele>155.29</ele><time>2026-08-14T08:47:08Z</time></trkpt><trkpt lat="59.3534743320" lon="34.6960411035"><ele>155.94</ele><time>2026-08-14T08:47:27Z</time></trkpt><trkpt lat="59.3534799479" lon="34.6958441287"><ele>155.75</ele><time>2026-08-14T08:47:52Z</time></trkpt><trkpt lat="59.3534389604" lon="34.6956697013"><ele>155.15</ele><time>2026-08-14T08:48:04Z</time></trkpt><trkpt lat="59.3534026667" lon="34.6955479123"><ele>156.93</ele><time>2026-08-14T08:48:34Z</time></trkpt><trkpt lat="59.3534190953" lon="34.6955119539"><ele>158.30</ele><time>2026-08-14T08:49:03Z</time></trkpt><trkpt lat="59.3534558080" lon="34.6954195015"><ele>158.49</ele><time>2026-08-14T08:49:19Z</time></trkpt><trkpt lat="59.3535236176" lon="34.6951819584"><ele>156.95</ele><time>2026-08-14T08:49:37Z</time></trkpt><trkpt lat="59.3536417186" lon="34.6949486900"><ele>154.15</ele><time>2026-08-14T08:49:57Z</time></trkpt><trkpt lat="59.3537076842" lon="34.6947871707"><ele>152.51</ele><time>2026-08-14T08:50:11Z</time></trkpt><trkpt lat="59.3538358435" lon="34.6946766134"><ele>149.28</ele><time>2026-08-14T08:50:29Z</time></trkpt><trkpt lat="59.3539936747" lon="34.6944244020"><ele>146.59</ele><time>2026-08-14T08:50:51Z</time></trkpt><trkpt lat="59.3540364224" lon="34.6943052113"><ele>147.55</ele><time>2026-08-14T08:51:08Z</time></trkpt><trkpt lat="59.3541177269" lon="34.6939871181"><ele>147.18</ele><time>2026-08-14T08:51:33Z</time></trkpt><trkpt lat="59.3540805113" lon="34.6938900556"><ele>147.21</ele><time>2026-08-14T08:51:37Z</time></trkpt><trkpt lat="59.3540653400" lon="34.6936924942"><ele>150.69</ele><time>2026-08-14T08:52:07Z</time></trkpt><trkpt lat="59.3540863786" lon="34.6936559491"><ele>150.23</ele><time>2026-08-14T08:52:33Z</time></trkpt><trkpt lat="59.3540857080" lon="34.6936016344"><ele>151.95</ele><time>2026-08-14T08:53:06Z</time></trkpt><trkpt lat="59.3541081715" lon="34.6938147023"><ele>152.16</ele><time>2026-08-14T08:53:38Z</time></trkpt><trkpt lat="59.3541081715" lon="34.6937655006"><ele>153.46</ele><time>2026-08-14T08:54:05Z</time></trkpt><trkpt lat="59.3541623186" lon="34.6936464775"><ele>152.29</ele><time>2026-08-14T08:54:31Z</time></trkpt><trkpt lat="59.3541983608" lon="34.6934028156"><ele>153.62</ele><time>2026-08-14T08:54:53Z</time></trkpt><trkpt lat="59.3542581238" lon="34.6932205930"><ele>153.29</ele><time>2026-08-14T08:55:15Z</time></trkpt><trkpt lat="59.3543019611" lon="34.6930926852"><ele>153.06</ele><time>2026-08-14T08:55:31Z</time></trkpt><trkpt lat="59.3543769792" lon="34.6928859036"><ele>152.19</ele><time>2026-08-14T08:55:55Z</time></trkpt><trkpt lat="59.3544128537" lon="34.6926541440"><ele>150.08</ele><time>2026-08-14T08:56:16Z</time></trkpt><trkpt lat="59.3545090780" lon="34.6922192071"><ele>148.22</ele><time>2026-08-14T08:56:40Z</time></trkpt><trkpt lat="59.3546063919" lon="34.6917621419"><ele>147.08</ele><time>2026-08-14T08:57:05Z</time></trkpt><trkpt lat="59.3547161110" lon="34.6915530972"><ele>149.79</ele><time>2026-08-14T08:57:32Z</time></trkpt><trkpt lat="59.3546747882" lon="34.6914216690"><ele>155.35</ele><time>2026-08-14T08:58:00Z</time></trkpt><trkpt lat="59.3547070585" lon="34.6913156379"><ele>161.03</ele><time>2026-08-14T08:58:29Z</time></trkpt><trkpt lat="59.3547345512" lon="34.6912345849"><ele>162.84</ele><time>2026-08-14T08:59:13Z</time></trkpt><trkpt lat="59.3548836652" lon="34.6912448946"><ele>161.99</ele><time>2026-08-14T08:59:32Z</time></trkpt><trkpt lat="59.3549965695" lon="34.6913353354"><ele>160.64</ele><time>2026-08-14T08:59:52Z</time></trkpt><trkpt lat="59.3550017662" lon="34.6913392749"><ele>160.54</ele><time>2026-08-14T08:59:53Z</time></trkpt><trkpt lat="59.3552415725" lon="34.6912833676"><ele>161.01</ele><time>2026-08-14T09:00:18Z</time></trkpt><trkpt lat="59.3553315941" lon="34.6912281308"><ele>159.03</ele><time>2026-08-14T09:00:32Z</time></trkpt><trkpt lat="59.3554134015" lon="34.6910726465"><ele>156.93</ele><time>2026-08-14T09:00:47Z</time></trkpt><trkpt lat="59.3555504456" lon="34.6908917651"><ele>152.78</ele><time>2026-08-14T09:01:02Z</time></trkpt><trkpt lat="59.3557056785" lon="34.6907090396"><ele>152.95</ele><time>2026-08-14T09:01:25Z</time></trkpt><trkpt lat="59.3557931855" lon="34.6905878372"><ele>153.85</ele><time>2026-08-14T09:01:40Z</time></trkpt><trkpt lat="59.3559024855" lon="34.6905240510"><ele>155.44</ele><time>2026-08-14T09:02:02Z</time></trkpt><trkpt lat="59.3560856301" lon="34.6904922836"><ele>157.36</ele><time>2026-08-14T09:02:26Z</time></trkpt><trkpt lat="59.3561610673" lon="34.6904524695"><ele>162.09</ele><time>2026-08-14T09:02:55Z</time></trkpt><trkpt lat="59.3562183995" lon="34.6904400643"><ele>160.83</ele><time>2026-08-14T09:03:24Z</time></trkpt><trkpt lat="59.3563084211" lon="34.6903541498"><ele>159.96</ele><time>2026-08-14T09:03:47Z</time></trkpt><trkpt lat="59.3563876301" lon="34.6902965661"><ele>158.75</ele><time>2026-08-14T09:04:15Z</time></trkpt><trkpt lat="59.3564378377" lon="34.6902974043"><ele>158.87</ele><time>2026-08-14T09:04:35Z</time></trkpt><trkpt lat="59.3565354869" lon="34.6902211290"><ele>157.34</ele><time>2026-08-14T09:04:59Z</time></trkpt><trkpt lat="59.3566051405" lon="34.6902809758"><ele>160.06</ele><time>2026-08-14T09:05:24Z</time></trkpt><trkpt lat="59.3566456251" lon="34.6903740987"><ele>161.06</ele><time>2026-08-14T09:05:51Z</time></trkpt><trkpt lat="59.3566001114" lon="34.6903727576"><ele>162.12</ele><time>2026-08-14T09:06:13Z</time></trkpt><trkpt lat="59.3565822579" lon="34.6903947182"><ele>164.91</ele><time>2026-08-14T09:06:42Z</time></trkpt><trkpt lat="59.3565829284" lon="34.6903905272"><ele>165.63</ele><time>2026-08-14T09:06:46Z</time></trkpt><trkpt lat="59.3565872032" lon="34.6904016752"><ele>165.69</ele><time>2026-08-14T09:07:19Z</time></trkpt><trkpt lat="59.3566130195" lon="34.6904683951"><ele>166.55</ele><time>2026-08-14T09:07:49Z</time></trkpt><trkpt lat="59.3567000236" lon="34.6904683951"><ele>167.51</ele><time>2026-08-14T09:08:18Z</time></trkpt><trkpt lat="59.3567799032" lon="34.6902670618"><ele>166.95</ele><time>2026-08-14T09:08:37Z</time></trkpt><trkpt lat="59.3569148518" lon="34.6900405828"><ele>164.34</ele><time>2026-08-14T09:08:58Z</time></trkpt><trkpt lat="59.3570332881" lon="34.6898537502"><ele>159.63</ele><time>2026-08-14T09:09:16Z</time></trkpt><trkpt lat="59.3570598587" lon="34.6898068953"><ele>159.38</ele><time>2026-08-14T09:09:21Z</time></trkpt><trkpt lat="59.3571545742" lon="34.6896649897"><ele>159.21</ele><time>2026-08-14T09:09:45Z</time></trkpt><trkpt lat="59.3572777882" lon="34.6896686777"><ele>157.53</ele><time>2026-08-14T09:10:09Z</time></trkpt><trkpt lat="59.3573331088" lon="34.6896603797"><ele>157.50</ele><time>2026-08-14T09:10:15Z</time></trkpt><trkpt lat="59.3574736733" lon="34.6895991918"><ele>160.36</ele><time>2026-08-14T09:10:41Z</time></trkpt><trkpt lat="59.3575439136" lon="34.6894706134"><ele>160.86</ele><time>2026-08-14T09:11:06Z</time></trkpt><trkpt lat="59.3575906008" lon="34.6893577930"><ele>162.59</ele><time>2026-08-14T09:11:33Z</time></trkpt><trkpt lat="59.3577224482" lon="34.6892121993"><ele>162.59</ele><time>2026-08-14T09:11:56Z</time></trkpt><trkpt lat="59.3578137271" lon="34.6891256981"><ele>161.86</ele><time>2026-08-14T09:12:11Z</time></trkpt><trkpt lat="59.3578571454" lon="34.6890117880"><ele>162.32</ele><time>2026-08-14T09:12:34Z</time></trkpt><trkpt lat="59.3578914274" lon="34.6891048271"><ele>162.54</ele><time>2026-08-14T09:13:12Z</time></trkpt><trkpt lat="59.3578467518" lon="34.6891300566"><ele>162.74</ele><time>2026-08-14T09:13:44Z</time></trkpt><trkpt lat="59.3578219414" lon="34.6891465690"><ele>163.11</ele><time>2026-08-14T09:14:16Z</time></trkpt><trkpt lat="59.3578138109" lon="34.6891878080"><ele>163.86</ele><time>2026-08-14T09:14:50Z</time></trkpt><trkpt lat="59.3578195944" lon="34.6891624108"><ele>165.50</ele><time>2026-08-14T09:15:18Z</time></trkpt><trkpt lat="59.3578285631" lon="34.6892238501"><ele>167.14</ele><time>2026-08-14T09:15:48Z</time></trkpt><trkpt lat="59.3578205165" lon="34.6891396958"><ele>167.73</ele><time>2026-08-14T09:16:18Z</time></trkpt><trkpt lat="59.3578441534" lon="34.6891148854"><ele>167.24</ele><time>2026-08-14T09:16:45Z</time></trkpt><trkpt lat="59.3578731548" lon="34.6891250275"><ele>164.26</ele><time>2026-08-14T09:17:21Z</time></trkpt><trkpt lat="59.3579337560" lon="34.6890538651"><ele>164.39</ele><time>2026-08-14T09:17:40Z</time></trkpt><trkpt lat="59.3580169883" lon="34.6889834572"><ele>164.38</ele><time>2026-08-14T09:17:59Z</time></trkpt><trkpt lat="59.3580180779" lon="34.6889620833"><ele>164.34</ele><time>2026-08-14T09:18:01Z</time></trkpt><trkpt lat="59.3580651842" lon="34.6888485085"><ele>164.54</ele><time>2026-08-14T09:18:24Z</time></trkpt><trkpt lat="59.3581107818" lon="34.6887346823"><ele>163.90</ele><time>2026-08-14T09:18:45Z</time></trkpt><trkpt lat="59.3581984565" lon="34.6887005679"><ele>164.76</ele><time>2026-08-14T09:19:15Z</time></trkpt><trkpt lat="59.3582368456" lon="34.6886549704"><ele>165.98</ele><time>2026-08-14T09:19:45Z</time></trkpt><trkpt lat="59.3582897354" lon="34.6885094605"><ele>166.30</ele><time>2026-08-14T09:20:10Z</time></trkpt><trkpt lat="59.3582835328" lon="34.6884086262"><ele>165.65</ele><time>2026-08-14T09:20:32Z</time></trkpt><trkpt lat="59.3583752308" lon="34.6881815605"><ele>163.71</ele><time>2026-08-14T09:20:58Z</time></trkpt><trkpt lat="59.3584408611" lon="34.6879492979"><ele>160.14</ele><time>2026-08-14T09:21:19Z</time></trkpt><trkpt lat="59.3585213274" lon="34.6878110804"><ele>157.32</ele><time>2026-08-14T09:21:35Z</time></trkpt><trkpt lat="59.3586044759" lon="34.6875652391"><ele>151.94</ele><time>2026-08-14T09:21:59Z</time></trkpt><trkpt lat="59.3586415239" lon="34.6874651592"><ele>153.27</ele><time>2026-08-14T09:22:25Z</time></trkpt><trkpt lat="59.3587167934" lon="34.6872883849"><ele>153.58</ele><time>2026-08-14T09:22:46Z</time></trkpt><trkpt lat="59.3588047195" lon="34.6871638298"><ele>154.76</ele><time>2026-08-14T09:23:05Z</time></trkpt><trkpt lat="59.3588758819" lon="34.6870835312"><ele>155.27</ele><time>2026-08-14T09:23:26Z</time></trkpt><trkpt lat="59.3589490559" lon="34.6870755684"><ele>157.23</ele><time>2026-08-14T09:23:48Z</time></trkpt><trkpt lat="59.3590240739" lon="34.6870374307"><ele>159.74</ele><time>2026-08-14T09:24:10Z</time></trkpt><trkpt lat="59.3591021094" lon="34.6870624926"><ele>161.14</ele><time>2026-08-14T09:24:30Z</time></trkpt><trkpt lat="59.3592554145" lon="34.6871214174"><ele>160.22</ele><time>2026-08-14T09:24:55Z</time></trkpt><trkpt lat="59.3594997469" lon="34.6871771570"><ele>158.25</ele><time>2026-08-14T09:25:20Z</time></trkpt><trkpt lat="59.3595589232" lon="34.6871995367"><ele>160.87</ele><time>2026-08-14T09:25:44Z</time></trkpt><trkpt lat="59.3597284891" lon="34.6872436255"><ele>157.59</ele><time>2026-08-14T09:26:07Z</time></trkpt><trkpt lat="59.3598661199" lon="34.6872350760"><ele>157.29</ele><time>2026-08-14T09:26:33Z</time></trkpt><trkpt lat="59.3599200994" lon="34.6872331481"><ele>157.94</ele><time>2026-08-14T09:26:40Z</time></trkpt><trkpt lat="59.3600275554" lon="34.6871939208"><ele>161.15</ele><time>2026-08-14T09:27:03Z</time></trkpt><trkpt lat="59.3600986339" lon="34.6871195734"><ele>162.66</ele><time>2026-08-14T09:27:24Z</time></trkpt><trkpt lat="59.3601635098" lon="34.6870681923"><ele>162.58</ele><time>2026-08-14T09:27:44Z</time></trkpt><trkpt lat="59.3602870591" lon="34.6870433819"><ele>162.04</ele><time>2026-08-14T09:28:08Z</time></trkpt><trkpt lat="59.3603365961" lon="34.6870331559"><ele>165.71</ele><time>2026-08-14T09:28:33Z</time></trkpt><trkpt lat="59.3603581376" lon="34.6870209184"><ele>169.84</ele><time>2026-08-14T09:29:02Z</time></trkpt><trkpt lat="59.3603835348" lon="34.6869466547"><ele>169.81</ele><time>2026-08-14T09:29:26Z</time></trkpt><trkpt lat="59.3604023103" lon="34.6869986225"><ele>169.46</ele><time>2026-08-14T09:29:56Z</time></trkpt><trkpt lat="59.3604159728" lon="34.6870118659"><ele>169.59</ele><time>2026-08-14T09:30:11Z</time></trkpt><trkpt lat="59.3604402803" lon="34.6870029811"><ele>170.14</ele><time>2026-08-14T09:30:30Z</time></trkpt><trkpt lat="59.3604824413" lon="34.6869677771"><ele>170.84</ele><time>2026-08-14T09:30:57Z</time></trkpt><trkpt lat="59.3604441360" lon="34.6869286336"><ele>171.98</ele><time>2026-08-14T09:31:26Z</time></trkpt><trkpt lat="59.3604315631" lon="34.6869130433"><ele>172.81</ele><time>2026-08-14T09:32:01Z</time></trkpt><trkpt lat="59.3604765739" lon="34.6868584771"><ele>173.14</ele><time>2026-08-14T09:32:31Z</time></trkpt><trkpt lat="59.3605726305" lon="34.6869320702"><ele>172.45</ele><time>2026-08-14T09:32:56Z</time></trkpt><trkpt lat="59.3606541026" lon="34.6869578864"><ele>171.13</ele><time>2026-08-14T09:33:21Z</time></trkpt><trkpt lat="59.3606900610" lon="34.6870702039"><ele>171.13</ele><time>2026-08-14T09:33:52Z</time></trkpt><trkpt lat="59.3606831878" lon="34.6870268695"><ele>169.82</ele><time>2026-08-14T09:34:20Z</time></trkpt><trkpt lat="59.3606946710" lon="34.6871246025"><ele>168.85</ele><time>2026-08-14T09:34:49Z</time></trkpt><trkpt lat="59.3606922403" lon="34.6871551126"><ele>168.75</ele><time>2026-08-14T09:35:16Z</time></trkpt><trkpt lat="59.3607737962" lon="34.6872813441"><ele>168.23</ele><time>2026-08-14T09:35:37Z</time></trkpt><trkpt lat="59.3609245028" lon="34.6873644087"><ele>163.73</ele><time>2026-08-14T09:35:59Z</time></trkpt><trkpt lat="59.3610108364" lon="34.6874793246"><ele>160.98</ele><time>2026-08-14T09:36:22Z</time></trkpt><trkpt lat="59.3610700127" lon="34.6875374112"><ele>161.86</ele><time>2026-08-14T09:36:45Z</time></trkpt><trkpt lat="59.3611678295" lon="34.6875379141"><ele>161.17</ele><time>2026-08-14T09:37:06Z</time></trkpt><trkpt lat="59.3613098189" lon="34.6876712702"><ele>157.20</ele><time>2026-08-14T09:37:27Z</time></trkpt><trkpt lat="59.3614290934" lon="34.6877939813"><ele>153.02</ele><time>2026-08-14T09:37:45Z</time></trkpt><trkpt lat="59.3615546543" lon="34.6878825780"><ele>149.34</ele><time>2026-08-14T09:38:00Z</time></trkpt><trkpt lat="59.3616243079" lon="34.6880411636"><ele>146.47</ele><time>2026-08-14T09:38:18Z</time></trkpt><trkpt lat="59.3618262280" lon="34.6880565025"><ele>145.83</ele><time>2026-08-14T09:38:39Z</time></trkpt><trkpt lat="59.3619921058" lon="34.6881116554"><ele>144.64</ele><time>2026-08-14T09:39:01Z</time></trkpt><trkpt lat="59.3621378671" lon="34.6881838236"><ele>139.05</ele><time>2026-08-14T09:39:26Z</time></trkpt><trkpt lat="59.3623580597" lon="34.6882196981"><ele>137.08</ele><time>2026-08-14T09:39:48Z</time></trkpt><trkpt lat="59.3625978660" lon="34.6883514617"><ele>141.17</ele><time>2026-08-14T09:40:12Z</time></trkpt><trkpt lat="59.3627299648" lon="34.6884181816"><ele>139.53</ele><time>2026-08-14T09:40:29Z</time></trkpt><trkpt lat="59.3628835212" lon="34.6885682177"><ele>141.17</ele><time>2026-08-14T09:40:45Z</time></trkpt><trkpt lat="59.3629912287" lon="34.6887276415"><ele>150.67</ele><time>2026-08-14T09:41:10Z</time></trkpt><trkpt lat="59.3630657438" lon="34.6888913400"><ele>156.27</ele><time>2026-08-14T09:41:38Z</time></trkpt><trkpt lat="59.3631823361" lon="34.6891048271"><ele>156.08</ele><time>2026-08-14T09:42:01Z</time></trkpt><trkpt lat="59.3633482140" lon="34.6892318968"><ele>155.50</ele><time>2026-08-14T09:42:22Z</time></trkpt><trkpt lat="59.3634721823" lon="34.6893189847"><ele>157.53</ele><time>2026-08-14T09:42:42Z</time></trkpt><trkpt lat="59.3636107352" lon="34.6894240100"><ele>157.32</ele><time>2026-08-14T09:43:03Z</time></trkpt><trkpt lat="59.3637243100" lon="34.6896527521"><ele>158.01</ele><time>2026-08-14T09:43:23Z</time></trkpt><trkpt lat="59.3637145031" lon="34.6897042170"><ele>157.89</ele><time>2026-08-14T09:43:40Z</time></trkpt><trkpt lat="59.3635777105" lon="34.6897015348"><ele>157.00</ele><time>2026-08-14T09:43:58Z</time></trkpt><trkpt lat="59.3634881079" lon="34.6897186339"><ele>155.08</ele><time>2026-08-14T09:44:17Z</time></trkpt><trkpt lat="59.3634827435" lon="34.6897254232"><ele>155.75</ele><time>2026-08-14T09:44:38Z</time></trkpt><trkpt lat="59.3634692486" lon="34.6897273511"><ele>155.31</ele><time>2026-08-14T09:45:02Z</time></trkpt><trkpt lat="59.3634757865" lon="34.6897785645"><ele>155.91</ele><time>2026-08-14T09:45:11Z</time></trkpt><trkpt lat="59.3634937238" lon="34.6897586156"><ele>159.27</ele><time>2026-08-14T09:45:41Z</time></trkpt><trkpt lat="59.3634922151" lon="34.6898376569"><ele>158.56</ele><time>2026-08-14T09:46:10Z</time></trkpt><trkpt lat="59.3634942267" lon="34.6898972522"><ele>159.45</ele><time>2026-08-14T09:46:37Z</time></trkpt><trkpt lat="59.3634971604" lon="34.6898879483"><ele>161.15</ele><time>2026-08-14T09:47:06Z</time></trkpt><trkpt lat="59.3634951487" lon="34.6898204740"><ele>160.31</ele><time>2026-08-14T09:47:38Z</time></trkpt><trkpt lat="59.3634638842" lon="34.6897951607"><ele>159.93</ele><time>2026-08-14T09:48:09Z</time></trkpt><trkpt lat="59.3634894490" lon="34.6898452006"><ele>159.50</ele><time>2026-08-14T09:48:36Z</time></trkpt><trkpt lat="59.3634819053" lon="34.6898384951"><ele>160.15</ele><time>2026-08-14T09:49:16Z</time></trkpt><trkpt lat="59.3634744454" lon="34.6899356414"><ele>160.43</ele><time>2026-08-14T09:49:50Z</time></trkpt><trkpt lat="59.3634938076" lon="34.6899214759"><ele>160.97</ele><time>2026-08-14T09:50:20Z</time></trkpt><trkpt lat="59.3634734396" lon="34.6898616292"><ele>160.84</ele><time>2026-08-14T09:50:45Z</time></trkpt><trkpt lat="59.3634444382" lon="34.6899127588"><ele>160.59</ele><time>2026-08-14T09:51:17Z</time></trkpt><trkpt lat="59.3634385709" lon="34.6899022814"><ele>159.49</ele><time>2026-08-14T09:51:48Z</time></trkpt><trkpt lat="59.3634427618" lon="34.6898881160"><ele>159.12</ele><time>2026-08-14T09:52:14Z</time></trkpt><trkpt lat="59.3634541612" lon="34.6899200510"><ele>158.66</ele><time>2026-08-14T09:52:46Z</time></trkpt><trkpt lat="59.3634472042" lon="34.6898981743"><ele>159.30</ele><time>2026-08-14T09:53:20Z</time></trkpt><trkpt lat="59.3634596094" lon="34.6898813266"><ele>158.19</ele><time>2026-08-14T09:53:51Z</time></trkpt><trkpt lat="59.3634714279" lon="34.6898440272"><ele>159.11</ele><time>2026-08-14T09:54:25Z</time></trkpt><trkpt lat="59.3635101523" lon="34.6898424346"><ele>160.82</ele><time>2026-08-14T09:54:55Z</time></trkpt><trkpt lat="59.3635196239" lon="34.6898644790"><ele>161.04</ele><time>2026-08-14T09:55:22Z</time></trkpt><trkpt lat="59.3634710088" lon="34.6898588631"><ele>160.66</ele><time>2026-08-14T09:55:46Z</time></trkpt><trkpt lat="59.3634755351" lon="34.6897394210"><ele>161.84</ele><time>2026-08-14T09:56:07Z</time></trkpt><trkpt lat="59.3635739386" lon="34.6898187976"><ele>161.16</ele><time>2026-08-14T09:56:19Z</time></trkpt><trkpt lat="59.3637559935" lon="34.6899325401"><ele>159.29</ele><time>2026-08-14T09:56:37Z</time></trkpt><trkpt lat="59.3637922872" lon="34.6899121720"><ele>159.01</ele><time>2026-08-14T09:56:40Z</time></trkpt><trkpt lat="59.3639037665" lon="34.6898049675"><ele>157.75</ele><time>2026-08-14T09:56:57Z</time></trkpt><trkpt lat="59.3639553990" lon="34.6897594538"><ele>159.35</ele><time>2026-08-14T09:57:12Z</time></trkpt><trkpt lat="59.3640291598" lon="34.6898218151"><ele>161.33</ele><time>2026-08-14T09:57:30Z</time></trkpt><trkpt lat="59.3641268928" lon="34.6898320410"><ele>162.79</ele><time>2026-08-14T09:57:52Z</time></trkpt><trkpt lat="59.3642403837" lon="34.6899301931"><ele>162.97</ele><time>2026-08-14T09:58:07Z</time></trkpt><trkpt lat="59.3642921001" lon="34.6901290119"><ele>161.15</ele><time>2026-08-14T09:58:24Z</time></trkpt><trkpt lat="59.3643674534" lon="34.6902029403"><ele>159.40</ele><time>2026-08-14T09:58:43Z</time></trkpt><trkpt lat="59.3644379452" lon="34.6904946305"><ele>155.99</ele><time>2026-08-14T09:59:05Z</time></trkpt><trkpt lat="59.3644517753" lon="34.6907783579"><ele>154.56</ele><time>2026-08-14T09:59:24Z</time></trkpt><trkpt lat="59.3644560501" lon="34.6907908469"><ele>154.92</ele><time>2026-08-14T09:59:28Z</time></trkpt><trkpt lat="59.3644652702" lon="34.6909849718"><ele>154.63</ele><time>2026-08-14T09:59:46Z</time></trkpt><trkpt lat="59.3645174056" lon="34.6911656018"><ele>153.26</ele><time>2026-08-14T10:00:02Z</time></trkpt><trkpt lat="59.3645342533" lon="34.6912099421"><ele>153.16</ele><time>2026-08-14T10:00:07Z</time></trkpt><trkpt lat="59.3645067606" lon="34.6913505904"><ele>152.93</ele><time>2026-08-14T10:00:11Z</time></trkpt><trkpt lat="59.3645285536" lon="34.6916131955"><ele>155.48</ele><time>2026-08-14T10:00:31Z</time></trkpt><trkpt lat="59.3644401245" lon="34.6918759681"><ele>156.11</ele><time>2026-08-14T10:00:50Z</time></trkpt><trkpt lat="59.3644702993" lon="34.6919598710"><ele>159.59</ele><time>2026-08-14T10:01:16Z</time></trkpt><trkpt lat="59.3644926790" lon="34.6920081507"><ele>161.45</ele><time>2026-08-14T10:01:35Z</time></trkpt><trkpt lat="59.3644695450" lon="34.6921779681"><ele>161.61</ele><time>2026-08-14T10:01:54Z</time></trkpt><trkpt lat="59.3643863127" lon="34.6923040319"><ele>161.23</ele><time>2026-08-14T10:02:14Z</time></trkpt><trkpt lat="59.3643361051" lon="34.6924232226"><ele>162.01</ele><time>2026-08-14T10:02:36Z</time></trkpt><trkpt lat="59.3643348478" lon="34.6925182734"><ele>161.48</ele><time>2026-08-14T10:03:00Z</time></trkpt><trkpt lat="59.3643118814" lon="34.6925893519"><ele>160.36</ele><time>2026-08-14T10:03:27Z</time></trkpt><trkpt lat="59.3642553035" lon="34.6927800402"><ele>160.53</ele><time>2026-08-14T10:03:49Z</time></trkpt><trkpt lat="59.3641922716" lon="34.6929826308"><ele>160.39</ele><time>2026-08-14T10:04:20Z</time></trkpt><trkpt lat="59.3642361090" lon="34.6929444931"><ele>162.16</ele><time>2026-08-14T10:04:52Z</time></trkpt><trkpt lat="59.3641823810" lon="34.6930066030"><ele>163.34</ele><time>2026-08-14T10:05:23Z</time></trkpt><trkpt lat="59.3641954567" lon="34.6930094529"><ele>163.66</ele><time>2026-08-14T10:05:55Z</time></trkpt><trkpt lat="59.3641754240" lon="34.6930368617"><ele>164.53</ele><time>2026-08-14T10:06:22Z</time></trkpt><trkpt lat="59.3641610909" lon="34.6930278093"><ele>166.63</ele><time>2026-08-14T10:06:48Z</time></trkpt><trkpt lat="59.3642234523" lon="34.6929661185"><ele>167.84</ele><time>2026-08-14T10:07:14Z</time></trkpt><trkpt lat="59.3642542139" lon="34.6931294817"><ele>167.18</ele><time>2026-08-14T10:07:34Z</time></trkpt><trkpt lat="59.3642610870" lon="34.6933042444"><ele>166.10</ele><time>2026-08-14T10:07:55Z</time></trkpt><trkpt lat="59.3642308284" lon="34.6935287118"><ele>164.76</ele><time>2026-08-14T10:08:14Z</time></trkpt><trkpt lat="59.3641840573" lon="34.6937983576"><ele>162.96</ele><time>2026-08-14T10:08:37Z</time></trkpt><trkpt lat="59.3641613424" lon="34.6940163709"><ele>161.84</ele><time>2026-08-14T10:08:54Z</time></trkpt><trkpt lat="59.3641164992" lon="34.6941628866"><ele>161.12</ele><time>2026-08-14T10:09:10Z</time></trkpt><trkpt lat="59.3640847318" lon="34.6942668222"><ele>160.67</ele><time>2026-08-14T10:09:24Z</time></trkpt><trkpt lat="59.3640184309" lon="34.6945136692"><ele>160.70</ele><time>2026-08-14T10:09:44Z</time></trkpt><trkpt lat="59.3640069477" lon="34.6946178563"><ele>161.05</ele><time>2026-08-14T10:10:02Z</time></trkpt><trkpt lat="59.3639867473" lon="34.6948125679"><ele>161.34</ele><time>2026-08-14T10:10:24Z</time></trkpt><trkpt lat="59.3639238831" lon="34.6949626040"><ele>162.57</ele><time>2026-08-14T10:10:46Z</time></trkpt><trkpt lat="59.3638855778" lon="34.6951283142"><ele>163.24</ele><time>2026-08-14T10:10:54Z</time></trkpt><trkpt lat="59.3638470210" lon="34.6953759156"><ele>165.58</ele><time>2026-08-14T10:11:15Z</time></trkpt><trkpt lat="59.3638936244" lon="34.6956674382"><ele>166.24</ele><time>2026-08-14T10:11:37Z</time></trkpt><trkpt lat="59.3638861645" lon="34.6957879700"><ele>165.29</ele><time>2026-08-14T10:11:54Z</time></trkpt><trkpt lat="59.3639018387" lon="34.6958647482"><ele>165.66</ele><time>2026-08-14T10:12:09Z</time></trkpt><trkpt lat="59.3638515472" lon="34.6961618029"><ele>168.25</ele><time>2026-08-14T10:12:35Z</time></trkpt><trkpt lat="59.3638500385" lon="34.6962509025"><ele>169.01</ele><time>2026-08-14T10:13:00Z</time></trkpt><trkpt lat="59.3638193607" lon="34.6961358190"><ele>167.93</ele><time>2026-08-14T10:13:32Z</time></trkpt><trkpt lat="59.3637639564" lon="34.6960975137"><ele>165.79</ele><time>2026-08-14T10:14:02Z</time></trkpt><trkpt lat="59.3637362123" lon="34.6960045584"><ele>168.25</ele><time>2026-08-14T10:14:28Z</time></trkpt><trkpt lat="59.3638709094" lon="34.6959829330"><ele>176.39</ele><time>2026-08-14T10:15:00Z</time></trkpt><trkpt lat="59.3638931215" lon="34.6959072445"><ele>179.19</ele><time>2026-08-14T10:15:31Z</time></trkpt><trkpt lat="59.3639063649" lon="34.6959387604"><ele>178.35</ele><time>2026-08-14T10:16:01Z</time></trkpt><trkpt lat="59.3638844043" lon="34.6959496569"><ele>174.79</ele><time>2026-08-14T10:16:29Z</time></trkpt><trkpt lat="59.3638517987" lon="34.6960001159"><ele>174.32</ele><time>2026-08-14T10:17:00Z</time></trkpt><trkpt lat="59.3638630304" lon="34.6962020360"><ele>175.36</ele><time>2026-08-14T10:17:30Z</time></trkpt><trkpt lat="59.3637922034" lon="34.6963630524"><ele>173.77</ele><time>2026-08-14T10:18:26Z</time></trkpt><trkpt lat="59.3636910338" lon="34.6964183729"><ele>171.89</ele><time>2026-08-14T10:18:45Z</time></trkpt><trkpt lat="59.3636238109" lon="34.6965921298"><ele>171.46</ele><time>2026-08-14T10:19:05Z</time></trkpt><trkpt lat="59.3635888584" lon="34.6967619471"><ele>171.65</ele><time>2026-08-14T10:19:31Z</time></trkpt><trkpt lat="59.3635779619" lon="34.6968025994"><ele>171.67</ele><time>2026-08-14T10:19:36Z</time></trkpt><trkpt lat="59.3634605315" lon="34.6970289107"><ele>171.69</ele><time>2026-08-14T10:20:03Z</time></trkpt><trkpt lat="59.3634448573" lon="34.6971413959"><ele>171.60</ele><time>2026-08-14T10:20:11Z</time></trkpt><trkpt lat="59.3633959908" lon="34.6972283162"><ele>170.92</ele><time>2026-08-14T10:20:20Z</time></trkpt><trkpt lat="59.3633570988" lon="34.6973951999"><ele>170.16</ele><time>2026-08-14T10:20:39Z</time></trkpt><trkpt lat="59.3632972520" lon="34.6974837128"><ele>171.68</ele><time>2026-08-14T10:21:08Z</time></trkpt><trkpt lat="59.3633495551" lon="34.6974909212"><ele>173.42</ele><time>2026-08-14T10:21:37Z</time></trkpt><trkpt lat="59.3633620441" lon="34.6974211000"><ele>174.41</ele><time>2026-08-14T10:22:06Z</time></trkpt><trkpt lat="59.3633621279" lon="34.6973721497"><ele>174.52</ele><time>2026-08-14T10:22:36Z</time></trkpt><trkpt lat="59.3633144349" lon="34.6973870695"><ele>173.85</ele><time>2026-08-14T10:23:05Z</time></trkpt><trkpt lat="59.3633362278" lon="34.6974920109"><ele>174.61</ele><time>2026-08-14T10:23:33Z</time></trkpt><trkpt lat="59.3633495551" lon="34.6976192482"><ele>174.58</ele><time>2026-08-14T10:24:00Z</time></trkpt><trkpt lat="59.3632897083" lon="34.6978780814"><ele>174.50</ele><time>2026-08-14T10:24:24Z</time></trkpt><trkpt lat="59.3631305359" lon="34.6980530117"><ele>173.42</ele><time>2026-08-14T10:24:48Z</time></trkpt><trkpt lat="59.3630613852" lon="34.6980904788"><ele>172.59</ele><time>2026-08-14T10:25:07Z</time></trkpt><trkpt lat="59.3630112614" lon="34.6982882079"><ele>173.01</ele><time>2026-08-14T10:25:29Z</time></trkpt><trkpt lat="59.3629278615" lon="34.6984629706"><ele>172.22</ele><time>2026-08-14T10:25:47Z</time></trkpt><trkpt lat="59.3628251832" lon="34.6986248251"><ele>172.89</ele><time>2026-08-14T10:26:09Z</time></trkpt><trkpt lat="59.3627936672" lon="34.6987461951"><ele>172.07</ele><time>2026-08-14T10:26:34Z</time></trkpt><trkpt lat="59.3628017139" lon="34.6987451892"><ele>169.66</ele><time>2026-08-14T10:27:03Z</time></trkpt><trkpt lat="59.3628007919" lon="34.6987425070"><ele>169.06</ele><time>2026-08-14T10:27:30Z</time></trkpt><trkpt lat="59.3627585471" lon="34.6988726780"><ele>168.29</ele><time>2026-08-14T10:27:57Z</time></trkpt><trkpt lat="59.3627108540" lon="34.6989574190"><ele>168.06</ele><time>2026-08-14T10:28:15Z</time></trkpt><trkpt lat="59.3626011349" lon="34.6990751009"><ele>166.65</ele><time>2026-08-14T10:28:37Z</time></trkpt><trkpt lat="59.3624616601" lon="34.6992377937"><ele>165.87</ele><time>2026-08-14T10:28:59Z</time></trkpt><trkpt lat="59.3623485044" lon="34.6992349438"><ele>166.03</ele><time>2026-08-14T10:29:26Z</time></trkpt><trkpt lat="59.3623465765" lon="34.6992204431"><ele>165.05</ele><time>2026-08-14T10:29:43Z</time></trkpt><trkpt lat="59.3622589856" lon="34.6993938647"><ele>165.72</ele><time>2026-08-14T10:30:00Z</time></trkpt><trkpt lat="59.3621866498" lon="34.6994601656"><ele>166.13</ele><time>2026-08-14T10:30:23Z</time></trkpt><trkpt lat="59.3621579837" lon="34.6996265464"><ele>166.95</ele><time>2026-08-14T10:30:38Z</time></trkpt><trkpt lat="59.3620966282" lon="34.6997482516"><ele>167.40</ele><time>2026-08-14T10:30:54Z</time></trkpt><trkpt lat="59.3620138988" lon="34.6999017242"><ele>167.84</ele><time>2026-08-14T10:31:10Z</time></trkpt><trkpt lat="59.3620008230" lon="34.7000978608"><ele>167.36</ele><time>2026-08-14T10:31:26Z</time></trkpt><trkpt lat="59.3618969712" lon="34.7002078313"><ele>167.16</ele><time>2026-08-14T10:31:46Z</time></trkpt><trkpt lat="59.3620075285" lon="34.7003847733"><ele>166.17</ele><time>2026-08-14T10:32:03Z</time></trkpt><trkpt lat="59.3620097917" lon="34.7004202288"><ele>166.00</ele><time>2026-08-14T10:32:05Z</time></trkpt><trkpt lat="59.3620308302" lon="34.7006265912"><ele>163.16</ele><time>2026-08-14T10:32:20Z</time></trkpt><trkpt lat="59.3620202690" lon="34.7007203009"><ele>161.53</ele><time>2026-08-14T10:32:33Z</time></trkpt><trkpt lat="59.3620194308" lon="34.7008088138"><ele>161.77</ele><time>2026-08-14T10:33:01Z</time></trkpt><trkpt lat="59.3620001525" lon="34.7009440139"><ele>165.00</ele><time>2026-08-14T10:33:28Z</time></trkpt><trkpt lat="59.3619952910" lon="34.7009540722"><ele>170.10</ele><time>2026-08-14T10:33:55Z</time></trkpt><trkpt lat="59.3619755097" lon="34.7009161022"><ele>171.60</ele><time>2026-08-14T10:34:26Z</time></trkpt><trkpt lat="59.3619448319" lon="34.7010158468"><ele>171.25</ele><time>2026-08-14T10:34:43Z</time></trkpt><trkpt lat="59.3619673792" lon="34.7011437546"><ele>170.76</ele><time>2026-08-14T10:34:59Z</time></trkpt><trkpt lat="59.3619367853" lon="34.7012891807"><ele>170.11</ele><time>2026-08-14T10:35:12Z</time></trkpt><trkpt lat="59.3618465960" lon="34.7015179228"><ele>169.51</ele><time>2026-08-14T10:35:33Z</time></trkpt><trkpt lat="59.3617521320" lon="34.7017513588"><ele>169.63</ele><time>2026-08-14T10:35:51Z</time></trkpt><trkpt lat="59.3616827298" lon="34.7019267082"><ele>169.13</ele><time>2026-08-14T10:36:10Z</time></trkpt><trkpt lat="59.3615804706" lon="34.7020262014"><ele>168.98</ele><time>2026-08-14T10:36:31Z</time></trkpt><trkpt lat="59.3614535686" lon="34.7022137884"><ele>168.10</ele><time>2026-08-14T10:36:49Z</time></trkpt><trkpt lat="59.3613222241" lon="34.7023417801"><ele>167.32</ele><time>2026-08-14T10:37:07Z</time></trkpt><trkpt lat="59.3612768780" lon="34.7024231683"><ele>166.76</ele><time>2026-08-14T10:37:15Z</time></trkpt><trkpt lat="59.3611125089" lon="34.7025898006"><ele>164.49</ele><time>2026-08-14T10:37:39Z</time></trkpt><trkpt lat="59.3610032927" lon="34.7026825044"><ele>162.31</ele><time>2026-08-14T10:37:55Z</time></trkpt><trkpt lat="59.3609843496" lon="34.7027507331"><ele>161.98</ele><time>2026-08-14T10:38:04Z</time></trkpt><trkpt lat="59.3609690946" lon="34.7029212210"><ele>161.30</ele><time>2026-08-14T10:38:17Z</time></trkpt><trkpt lat="59.3608874548" lon="34.7031606082"><ele>161.10</ele><time>2026-08-14T10:38:38Z</time></trkpt><trkpt lat="59.3609002791" lon="34.7034001630"><ele>161.44</ele><time>2026-08-14T10:38:54Z</time></trkpt><trkpt lat="59.3608670868" lon="34.7035911866"><ele>161.24</ele><time>2026-08-14T10:39:12Z</time></trkpt><trkpt lat="59.3608225789" lon="34.7036983073"><ele>162.79</ele><time>2026-08-14T10:39:40Z</time></trkpt><trkpt lat="59.3607877102" lon="34.7037298232"><ele>164.43</ele><time>2026-08-14T10:40:10Z</time></trkpt><trkpt lat="59.3608382531" lon="34.7037237044"><ele>164.66</ele><time>2026-08-14T10:40:44Z</time></trkpt><trkpt lat="59.3607047293" lon="34.7039233614"><ele>164.08</ele><time>2026-08-14T10:41:12Z</time></trkpt><trkpt lat="59.3606444634" lon="34.7042120341"><ele>163.60</ele><time>2026-08-14T10:41:32Z</time></trkpt><trkpt lat="59.3605241831" lon="34.7045237571"><ele>161.38</ele><time>2026-08-14T10:41:52Z</time></trkpt><trkpt lat="59.3604098540" lon="34.7048420180"><ele>161.16</ele><time>2026-08-14T10:42:15Z</time></trkpt><trkpt lat="59.3603433017" lon="34.7050822433"><ele>160.79</ele><time>2026-08-14T10:42:34Z</time></trkpt><trkpt lat="59.3602656014" lon="34.7052779607"><ele>159.02</ele><time>2026-08-14T10:42:55Z</time></trkpt><trkpt lat="59.3601307366" lon="34.7053015977"><ele>158.17</ele><time>2026-08-14T10:43:13Z</time></trkpt><trkpt lat="59.3600259628" lon="34.7052601911"><ele>158.82</ele><time>2026-08-14T10:43:31Z</time></trkpt><trkpt lat="59.3598476797" lon="34.7054021806"><ele>159.62</ele><time>2026-08-14T10:43:50Z</time></trkpt><trkpt lat="59.3597079534" lon="34.7055533901"><ele>160.42</ele><time>2026-08-14T10:44:06Z</time></trkpt><trkpt lat="59.3596706539" lon="34.7056066152"><ele>162.42</ele><time>2026-08-14T10:44:19Z</time></trkpt><trkpt lat="59.3596298341" lon="34.7056845669"><ele>162.43</ele><time>2026-08-14T10:44:43Z</time></trkpt><trkpt lat="59.3595048599" lon="34.7058578208"><ele>161.74</ele><time>2026-08-14T10:45:03Z</time></trkpt><trkpt lat="59.3593850825" lon="34.7060765047"><ele>161.54</ele><time>2026-08-14T10:45:19Z</time></trkpt><trkpt lat="59.3593021017" lon="34.7062904947"><ele>159.85</ele><time>2026-08-14T10:45:33Z</time></trkpt><trkpt lat="59.3592979945" lon="34.7063085157"><ele>159.66</ele><time>2026-08-14T10:45:34Z</time></trkpt><trkpt lat="59.3592114933" lon="34.7065273672"><ele>158.23</ele><time>2026-08-14T10:45:49Z</time></trkpt><trkpt lat="59.3591410853" lon="34.7067627311"><ele>157.88</ele><time>2026-08-14T10:46:04Z</time></trkpt><trkpt lat="59.3590445258" lon="34.7070001066"><ele>157.32</ele><time>2026-08-14T10:46:18Z</time></trkpt><trkpt lat="59.3589483015" lon="34.7072329558"><ele>157.09</ele><time>2026-08-14T10:46:32Z</time></trkpt><trkpt lat="59.3587804120" lon="34.7075213771"><ele>156.58</ele><time>2026-08-14T10:46:56Z</time></trkpt><trkpt lat="59.3586054817" lon="34.7077181842"><ele>157.09</ele><time>2026-08-14T10:47:14Z</time></trkpt><trkpt lat="59.3584581278" lon="34.7079686355"><ele>157.50</ele><time>2026-08-14T10:47:35Z</time></trkpt><trkpt lat="59.3584268633" lon="34.7079897579"><ele>158.31</ele><time>2026-08-14T10:47:57Z</time></trkpt><trkpt lat="59.3582961056" lon="34.7080915980"><ele>158.90</ele><time>2026-08-14T10:48:22Z</time></trkpt><trkpt lat="59.3582767434" lon="34.7081009019"><ele>158.88</ele><time>2026-08-14T10:48:24Z</time></trkpt><trkpt lat="59.3580472469" lon="34.7082071844"><ele>159.48</ele><time>2026-08-14T10:48:48Z</time></trkpt><trkpt lat="59.3578406330" lon="34.7083252855"><ele>159.29</ele><time>2026-08-14T10:49:13Z</time></trkpt><trkpt lat="59.3576242123" lon="34.7084079310"><ele>158.69</ele><time>2026-08-14T10:49:36Z</time></trkpt><trkpt lat="59.3575879186" lon="34.7084342502"><ele>158.61</ele><time>2026-08-14T10:49:40Z</time></trkpt><trkpt lat="59.3574220408" lon="34.7084936779"><ele>157.79</ele><time>2026-08-14T10:49:55Z</time></trkpt><trkpt lat="59.3572949711" lon="34.7085490823"><ele>157.55</ele><time>2026-08-14T10:50:11Z</time></trkpt><trkpt lat="59.3571352959" lon="34.7086920775"><ele>155.07</ele><time>2026-08-14T10:50:28Z</time></trkpt><trkpt lat="59.3570126686" lon="34.7088341508"><ele>153.21</ele><time>2026-08-14T10:50:41Z</time></trkpt><trkpt lat="59.3568821624" lon="34.7090837639"><ele>153.35</ele><time>2026-08-14T10:50:58Z</time></trkpt><trkpt lat="59.3567643967" lon="34.7092734464"><ele>153.44</ele><time>2026-08-14T10:51:11Z</time></trkpt><trkpt lat="59.3567524105" lon="34.7092871089"><ele>153.52</ele><time>2026-08-14T10:51:12Z</time></trkpt><trkpt lat="59.3566602934" lon="34.7094415035"><ele>152.07</ele><time>2026-08-14T10:51:23Z</time></trkpt><trkpt lat="59.3565036356" lon="34.7096651327"><ele>151.68</ele><time>2026-08-14T10:51:40Z</time></trkpt><trkpt lat="59.3563761469" lon="34.7098750155"><ele>149.43</ele><time>2026-08-14T10:51:56Z</time></trkpt><trkpt lat="59.3562230933" lon="34.7101149894"><ele>150.03</ele><time>2026-08-14T10:52:11Z</time></trkpt><trkpt lat="59.3559872266" lon="34.7103986330"><ele>153.29</ele><time>2026-08-14T10:52:31Z</time></trkpt><trkpt lat="59.3557690457" lon="34.7105974518"><ele>153.37</ele><time>2026-08-14T10:52:50Z</time></trkpt><trkpt lat="59.3555860687" lon="34.7107583843"><ele>155.34</ele><time>2026-08-14T10:53:06Z</time></trkpt><trkpt lat="59.3553829752" lon="34.7108753119"><ele>157.46</ele><time>2026-08-14T10:53:22Z</time></trkpt><trkpt lat="59.3552453443" lon="34.7106561251"><ele>155.92</ele><time>2026-08-14T10:53:38Z</time></trkpt><trkpt lat="59.3551309314" lon="34.7102920152"><ele>154.18</ele><time>2026-08-14T10:53:56Z</time></trkpt><trkpt lat="59.3549855892" lon="34.7099799570"><ele>152.62</ele><time>2026-08-14T10:54:13Z</time></trkpt><trkpt lat="59.3548162747" lon="34.7097645421"><ele>152.57</ele><time>2026-08-14T10:54:30Z</time></trkpt><trkpt lat="59.3546242453" lon="34.7096085548"><ele>152.14</ele><time>2026-08-14T10:54:49Z</time></trkpt><trkpt lat="59.3544221576" lon="34.7094658110"><ele>152.15</ele><time>2026-08-14T10:55:08Z</time></trkpt><trkpt lat="59.3542423658" lon="34.7092738654"><ele>152.38</ele><time>2026-08-14T10:55:27Z</time></trkpt><trkpt lat="59.3542342354" lon="34.7092585266"><ele>152.40</ele><time>2026-08-14T10:55:28Z</time></trkpt><trkpt lat="59.3541278690" lon="34.7090862785"><ele>153.18</ele><time>2026-08-14T10:55:41Z</time></trkpt><trkpt lat="59.3539506756" lon="34.7088597994"><ele>152.84</ele><time>2026-08-14T10:55:59Z</time></trkpt><trkpt lat="59.3537420500" lon="34.7087020520"><ele>152.42</ele><time>2026-08-14T10:56:16Z</time></trkpt><trkpt lat="59.3535174150" lon="34.7084920853"><ele>149.16</ele><time>2026-08-14T10:56:36Z</time></trkpt><trkpt lat="59.3534931075" lon="34.7084619105"><ele>148.88</ele><time>2026-08-14T10:56:38Z</time></trkpt><trkpt lat="59.3533450831" lon="34.7082112916"><ele>148.80</ele><time>2026-08-14T10:56:53Z</time></trkpt><trkpt lat="59.3532799557" lon="34.7081317473"><ele>148.50</ele><time>2026-08-14T10:56:59Z</time></trkpt><trkpt lat="59.3531163409" lon="34.7079575714"><ele>148.88</ele><time>2026-08-14T10:57:15Z</time></trkpt><trkpt lat="59.3528912030" lon="34.7079335991"><ele>149.90</ele><time>2026-08-14T10:57:33Z</time></trkpt><trkpt lat="59.3527280912" lon="34.7081009857"><ele>151.00</ele><time>2026-08-14T10:57:47Z</time></trkpt><trkpt lat="59.3525182083" lon="34.7080460005"><ele>153.35</ele><time>2026-08-14T10:58:05Z</time></trkpt><trkpt lat="59.3522918131" lon="34.7079440765"><ele>155.00</ele><time>2026-08-14T10:58:24Z</time></trkpt><trkpt lat="59.3521834351" lon="34.7078534681"><ele>157.41</ele><time>2026-08-14T10:58:35Z</time></trkpt><trkpt lat="59.3521957565" lon="34.7078012489"><ele>158.00</ele><time>2026-08-14T10:58:38Z</time></trkpt><trkpt lat="59.3522086646" lon="34.7077892628"><ele>158.57</ele><time>2026-08-14T10:58:56Z</time></trkpt><trkpt lat="59.3522029649" lon="34.7077856585"><ele>159.13</ele><time>2026-08-14T10:59:23Z</time></trkpt><trkpt lat="59.3522296194" lon="34.7077889275"><ele>159.13</ele><time>2026-08-14T10:59:53Z</time></trkpt><trkpt lat="59.3522126880" lon="34.7077806294"><ele>158.75</ele><time>2026-08-14T11:00:18Z</time></trkpt><trkpt lat="59.3521852791" lon="34.7077233810"><ele>159.19</ele><time>2026-08-14T11:00:33Z</time></trkpt><trkpt lat="59.3521473929" lon="34.7078085411"><ele>158.95</ele><time>2026-08-14T11:00:39Z</time></trkpt><trkpt lat="59.3519541062" lon="34.7078204434"><ele>159.03</ele><time>2026-08-14T11:00:54Z</time></trkpt><trkpt lat="59.3517497554" lon="34.7076911107"><ele>157.67</ele><time>2026-08-14T11:01:12Z</time></trkpt><trkpt lat="59.3515211809" lon="34.7076202836"><ele>155.73</ele><time>2026-08-14T11:01:30Z</time></trkpt><trkpt lat="59.3512892537" lon="34.7073773760"><ele>153.40</ele><time>2026-08-14T11:01:50Z</time></trkpt><trkpt lat="59.3512649462" lon="34.7072246578"><ele>153.18</ele><time>2026-08-14T11:01:57Z</time></trkpt><trkpt lat="59.3512480985" lon="34.7071265057"><ele>152.96</ele><time>2026-08-14T11:02:01Z</time></trkpt><trkpt lat="59.3512315024" lon="34.7069847677"><ele>152.71</ele><time>2026-08-14T11:02:06Z</time></trkpt><trkpt lat="59.3512188457" lon="34.7068711091"><ele>152.59</ele><time>2026-08-14T11:02:10Z</time></trkpt><trkpt lat="59.3511675484" lon="34.7063903231"><ele>152.43</ele><time>2026-08-14T11:02:28Z</time></trkpt><trkpt lat="59.3511171732" lon="34.7058932763"><ele>152.72</ele><time>2026-08-14T11:02:46Z</time></trkpt><trkpt lat="59.3511155806" lon="34.7054999135"><ele>152.66</ele><time>2026-08-14T11:03:00Z</time></trkpt><trkpt lat="59.3511125632" lon="34.7050827462"><ele>152.31</ele><time>2026-08-14T11:03:15Z</time></trkpt><trkpt lat="59.3510859925" lon="34.7047229949"><ele>151.55</ele><time>2026-08-14T11:03:28Z</time></trkpt><trkpt lat="59.3510710727" lon="34.7046129405"><ele>151.58</ele><time>2026-08-14T11:03:32Z</time></trkpt><trkpt lat="59.3510717433" lon="34.7045593802"><ele>151.71</ele><time>2026-08-14T11:03:34Z</time></trkpt><trkpt lat="59.3510815501" lon="34.7043461446"><ele>152.69</ele><time>2026-08-14T11:03:42Z</time></trkpt><trkpt lat="59.3510740064" lon="34.7038873192"><ele>153.72</ele><time>2026-08-14T11:03:58Z</time></trkpt><trkpt lat="59.3510589190" lon="34.7034982312"><ele>153.13</ele><time>2026-08-14T11:04:12Z</time></trkpt><trkpt lat="59.3510538898" lon="34.7033906914"><ele>152.71</ele><time>2026-08-14T11:04:16Z</time></trkpt><trkpt lat="59.3510364555" lon="34.7030827403"><ele>151.20</ele><time>2026-08-14T11:04:27Z</time></trkpt><trkpt lat="59.3510354497" lon="34.7027186304"><ele>150.82</ele><time>2026-08-14T11:04:41Z</time></trkpt><trkpt lat="59.3510399759" lon="34.7022764850"><ele>151.21</ele><time>2026-08-14T11:04:57Z</time></trkpt><trkpt lat="59.3510475196" lon="34.7019636724"><ele>151.49</ele><time>2026-08-14T11:05:09Z</time></trkpt><trkpt lat="59.3510465976" lon="34.7016728204"><ele>152.09</ele><time>2026-08-14T11:05:21Z</time></trkpt><trkpt lat="59.3510000780" lon="34.7012760211"><ele>152.15</ele><time>2026-08-14T11:05:35Z</time></trkpt><trkpt lat="59.3509220425" lon="34.7008425929"><ele>153.84</ele><time>2026-08-14T11:05:51Z</time></trkpt><trkpt lat="59.3508879282" lon="34.7005915549"><ele>154.28</ele><time>2026-08-14T11:06:00Z</time></trkpt><trkpt lat="59.3508091383" lon="34.7001838591"><ele>155.74</ele><time>2026-08-14T11:06:18Z</time></trkpt><trkpt lat="59.3506965693" lon="34.6997697093"><ele>156.03</ele><time>2026-08-14T11:06:40Z</time></trkpt><trkpt lat="59.3505896162" lon="34.6994982194"><ele>156.71</ele><time>2026-08-14T11:06:59Z</time></trkpt><trkpt lat="59.3505609501" lon="34.6994421445"><ele>156.98</ele><time>2026-08-14T11:07:20Z</time></trkpt></trkseg></trk></gpx>